createdAt,value
2022-09-30T00:00:22.728Z,8.80
2022-09-30T00:03:24.642Z,10.10
2022-09-30T00:06:29.621Z,8.60
2022-09-30T00:09:31.268Z,8.80
2022-09-30T00:12:33.117Z,8.20
2022-09-30T00:15:34.704Z,8.30
2022-09-30T00:18:37.397Z,9.70
2022-09-30T00:21:39.285Z,10.90
2022-09-30T00:24:40.904Z,8.70
2022-09-30T00:27:42.620Z,8.50
2022-09-30T00:30:44.263Z,8.80
2022-09-30T00:34:06.782Z,8.10
2022-09-30T00:37:08.954Z,10.20
2022-09-30T00:40:11.512Z,8.60
2022-09-30T00:43:20.225Z,10.50
2022-09-30T00:46:44.663Z,8.50
2022-09-30T00:49:46.749Z,8.50
2022-09-30T00:53:19.962Z,7.70
2022-09-30T00:56:26.277Z,9.00
2022-09-30T00:59:33.456Z,8.30
2022-09-30T01:02:36.379Z,8.40
2022-09-30T01:05:38.092Z,8.70
2022-09-30T01:08:40.399Z,7.70
2022-09-30T01:28:43.141Z,11.00
2022-09-30T01:31:53.752Z,8.80
2022-09-30T01:35:23.756Z,8.30
2022-09-30T01:38:29.235Z,8.50
2022-09-30T01:42:10.001Z,7.80
2022-09-30T01:49:54.160Z,8.40
2022-09-30T01:53:09.731Z,8.60
2022-09-30T01:56:18.463Z,8.60
2022-09-30T01:59:22.194Z,8.70
2022-09-30T02:02:31.700Z,8.20
2022-09-30T02:05:41.593Z,8.10
2022-09-30T02:08:52.003Z,8.50
2022-09-30T02:11:56.467Z,8.10
2022-09-30T02:15:12.333Z,8.20
2022-09-30T02:18:35.550Z,8.40
2022-09-30T02:21:41.741Z,8.60
2022-09-30T02:24:45.986Z,7.80
2022-09-30T02:27:56.618Z,8.30
2022-09-30T02:31:02.107Z,8.10
2022-09-30T02:34:11.629Z,8.00
2022-09-30T02:37:27.923Z,9.70
2022-09-30T02:40:39.846Z,8.30
2022-09-30T02:43:42.201Z,8.30
2022-09-30T02:46:54.967Z,7.60
2022-09-30T02:50:24.466Z,8.60
2022-09-30T02:53:37.622Z,8.50
2022-09-30T02:57:23.949Z,8.60
2022-09-30T03:00:26.673Z,8.50
2022-09-30T03:03:32.566Z,8.10
2022-09-30T03:06:36.616Z,10.30
2022-09-30T03:09:38.589Z,8.40
2022-09-30T03:13:18.773Z,8.50
2022-09-30T03:16:51.028Z,8.30
2022-09-30T03:20:18.654Z,8.70
2022-09-30T03:23:47.010Z,8.20
2022-09-30T03:27:32.661Z,8.50
2022-09-30T03:30:48.951Z,8.60
2022-09-30T03:34:15.909Z,8.60
2022-09-30T03:37:31.399Z,8.00
2022-09-30T03:40:42.171Z,8.00
2022-09-30T03:43:55.058Z,7.80
2022-09-30T03:47:01.688Z,8.60
2022-09-30T03:50:08.206Z,8.00
2022-09-30T03:53:12.439Z,8.40
2022-09-30T03:56:14.325Z,8.10
2022-09-30T03:59:25.505Z,7.80
2022-09-30T04:02:27.942Z,8.20
2022-09-30T04:05:32.179Z,8.20
2022-09-30T04:08:34.095Z,8.50
2022-09-30T04:11:35.757Z,7.60
2022-09-30T04:14:37.740Z,7.70
2022-09-30T04:17:39.395Z,10.30
2022-09-30T04:20:40.967Z,10.30
2022-09-30T04:23:43.354Z,8.10
2022-09-30T04:26:44.927Z,8.90
2022-09-30T04:29:46.559Z,8.20
2022-09-30T04:32:48.209Z,7.70
2022-09-30T04:35:54.047Z,7.90
2022-09-30T04:38:55.765Z,9.10
2022-09-30T04:41:57.427Z,7.60
2022-09-30T04:44:59.197Z,7.40
2022-09-30T04:48:00.985Z,7.80
2022-09-30T04:51:02.734Z,8.40
2022-09-30T04:54:04.534Z,7.70
2022-09-30T04:57:06.239Z,6.90
2022-09-30T05:00:09.313Z,7.70
2022-09-30T05:03:11.162Z,8.80
2022-09-30T05:06:14.392Z,7.50
2022-09-30T05:09:16.192Z,9.60
2022-09-30T05:12:17.889Z,10.10
2022-09-30T05:15:19.513Z,7.80
2022-09-30T05:18:22.083Z,8.10
2022-09-30T05:21:23.750Z,10.30
2022-09-30T05:24:25.583Z,7.60
2022-09-30T05:27:27.766Z,9.30
2022-09-30T05:30:29.434Z,8.00
2022-09-30T05:33:31.121Z,8.00
2022-09-30T05:36:32.698Z,8.40
2022-09-30T05:39:34.246Z,7.80
2022-09-30T05:42:36.139Z,8.30
2022-09-30T05:45:38.547Z,9.20
2022-09-30T05:48:40.539Z,10.00
2022-09-30T05:51:42.347Z,7.90
2022-09-30T05:54:43.994Z,10.40
2022-09-30T05:57:48.817Z,9.50
2022-09-30T06:00:51.212Z,7.90
2022-09-30T06:03:53.125Z,9.70
2022-09-30T06:06:54.787Z,7.70
2022-09-30T06:09:56.460Z,9.60
2022-09-30T06:12:59.165Z,9.30
2022-09-30T06:16:02.235Z,8.90
2022-09-30T06:19:04.101Z,9.60
2022-09-30T06:22:05.696Z,7.90
2022-09-30T06:25:07.730Z,7.80
2022-09-30T06:28:09.290Z,8.60
2022-09-30T06:31:11.701Z,7.70
2022-09-30T06:34:13.644Z,8.10
2022-09-30T06:37:16.398Z,8.10
2022-09-30T06:40:21.127Z,7.80
2022-09-30T06:43:22.737Z,8.10
2022-09-30T06:46:29.776Z,8.50
2022-09-30T06:49:43.773Z,11.50
2022-09-30T06:52:48.140Z,8.30
2022-09-30T06:55:55.866Z,8.60
2022-09-30T06:58:57.494Z,9.00
2022-09-30T07:01:59.427Z,8.80
2022-09-30T07:05:04.123Z,10.90
2022-09-30T07:08:05.929Z,9.30
2022-09-30T07:11:17.081Z,8.80
2022-09-30T07:14:18.797Z,9.00
2022-09-30T07:17:20.550Z,9.00
2022-09-30T07:20:22.550Z,11.00
2022-09-30T07:23:27.050Z,8.90
2022-09-30T07:26:31.072Z,8.90
2022-09-30T07:29:56.556Z,10.00
2022-09-30T07:32:55.606Z,9.60
2022-09-30T07:35:59.268Z,10.10
2022-09-30T07:39:06.118Z,9.40
2022-09-30T07:42:08.660Z,10.00
2022-09-30T07:45:11.140Z,9.50
2022-09-30T07:48:32.770Z,10.40
2022-09-30T07:51:38.240Z,9.90
2022-09-30T07:54:45.354Z,9.90
2022-09-30T07:57:49.728Z,10.30
2022-09-30T08:00:51.883Z,13.30
2022-09-30T08:03:59.496Z,10.60
2022-09-30T08:07:02.330Z,10.10
2022-09-30T08:10:04.432Z,10.60
2022-09-30T08:13:06.524Z,11.00
2022-09-30T08:16:08.416Z,10.70
2022-09-30T08:19:16.115Z,10.80
2022-09-30T08:22:17.918Z,11.70
2022-09-30T08:25:19.673Z,11.30
2022-09-30T08:28:21.250Z,11.10
2022-09-30T08:31:24.087Z,11.40
2022-09-30T08:34:25.886Z,11.60
2022-09-30T08:37:27.482Z,12.20
2022-09-30T08:40:32.303Z,11.40
2022-09-30T08:43:54.499Z,12.10
2022-09-30T08:47:23.095Z,13.20
2022-09-30T08:50:54.858Z,12.40
2022-09-30T08:53:58.966Z,12.40
2022-09-30T08:57:03.448Z,11.90
2022-09-30T09:00:12.502Z,11.60
2022-09-30T09:03:14.326Z,12.40
2022-09-30T09:06:28.821Z,12.00
2022-09-30T09:09:48.001Z,12.30
2022-09-30T09:13:07.459Z,12.40
2022-09-30T09:16:27.897Z,12.50
2022-09-30T09:20:07.410Z,12.60
2022-09-30T09:23:14.078Z,13.00
2022-09-30T09:26:16.372Z,14.90
2022-09-30T09:29:44.874Z,12.50
2022-09-30T09:32:52.297Z,13.10
2022-09-30T09:36:12.624Z,13.00
2022-09-30T09:39:37.693Z,12.90
2022-09-30T09:42:52.017Z,13.40
2022-09-30T09:45:56.382Z,13.40
2022-09-30T09:49:24.103Z,13.70
2022-09-30T09:52:43.343Z,13.50
2022-09-30T09:55:45.402Z,13.80
2022-09-30T09:59:18.205Z,13.40
2022-09-30T10:02:30.859Z,13.50
2022-09-30T10:05:39.606Z,13.90
2022-09-30T10:09:01.744Z,15.50
2022-09-30T10:12:06.373Z,13.90
2022-09-30T10:15:26.296Z,16.40
2022-09-30T10:18:38.067Z,16.60
2022-09-30T10:21:39.624Z,13.60
2022-09-30T10:24:41.238Z,13.80
2022-09-30T10:27:51.450Z,13.80
2022-09-30T10:31:14.460Z,15.50
2022-09-30T10:34:24.290Z,14.80
2022-09-30T10:37:26.033Z,16.20
2022-09-30T10:40:30.151Z,14.00
2022-09-30T10:43:48.132Z,14.20
2022-09-30T10:46:53.177Z,17.10
2022-09-30T10:50:11.570Z,14.10
2022-09-30T10:53:21.194Z,15.00
2022-09-30T10:56:41.712Z,14.40
2022-09-30T10:59:44.807Z,15.30
2022-09-30T11:02:57.956Z,14.90
2022-09-30T11:06:01.142Z,15.10
2022-09-30T11:09:18.143Z,15.10
2022-09-30T11:12:49.041Z,15.60
2022-09-30T11:16:08.898Z,16.00
2022-09-30T11:19:21.965Z,15.60
2022-09-30T11:22:45.171Z,15.30
2022-09-30T11:26:04.879Z,15.60
2022-09-30T11:29:27.825Z,15.20
2022-09-30T11:32:35.331Z,15.80
2022-09-30T11:36:08.590Z,15.60
2022-09-30T11:39:32.020Z,15.50
2022-09-30T11:42:45.086Z,15.30
2022-09-30T11:46:08.363Z,15.50
2022-09-30T11:49:21.508Z,17.60
2022-09-30T11:52:50.944Z,15.60
2022-09-30T11:56:20.611Z,15.90
2022-09-30T11:59:30.897Z,16.00
2022-09-30T12:02:50.341Z,16.20
2022-09-30T12:05:59.690Z,15.80
2022-09-30T12:09:24.037Z,15.90
2022-09-30T12:12:25.650Z,18.20
2022-09-30T12:15:28.715Z,17.80
2022-09-30T12:18:48.855Z,16.00
2022-09-30T12:22:00.421Z,16.70
2022-09-30T12:25:11.524Z,18.20
2022-09-30T12:29:03.474Z,19.20
2022-09-30T12:32:24.155Z,16.70
2022-09-30T12:36:03.613Z,17.90
2022-09-30T12:39:34.432Z,16.80
2022-09-30T12:43:11.392Z,17.20
2022-09-30T12:46:32.515Z,16.90
2022-09-30T12:49:38.558Z,16.60
2022-09-30T12:52:40.252Z,18.40
2022-09-30T12:55:42.339Z,18.60
2022-09-30T12:58:50.916Z,17.20
2022-09-30T13:01:52.850Z,16.60
2022-09-30T13:04:54.521Z,15.80
2022-09-30T13:08:05.078Z,18.80
2022-09-30T13:11:08.584Z,18.00
2022-09-30T13:14:22.342Z,19.70
2022-09-30T13:17:27.082Z,16.80
2022-09-30T13:21:18.766Z,18.40
2022-09-30T13:28:21.995Z,16.60
2022-09-30T13:34:57.854Z,18.80
2022-09-30T13:38:14.657Z,17.10
2022-09-30T13:41:24.858Z,16.20
2022-09-30T13:44:45.485Z,16.30
2022-09-30T13:47:51.730Z,16.70
2022-09-30T13:50:55.010Z,16.50
2022-09-30T13:54:03.637Z,18.40
2022-09-30T13:57:07.365Z,18.80
2022-09-30T14:00:18.543Z,18.30
2022-09-30T14:03:41.767Z,18.60
2022-09-30T14:06:49.468Z,16.10
2022-09-30T14:10:21.404Z,18.10
2022-09-30T14:13:52.018Z,16.50
2022-09-30T14:17:14.300Z,16.60
2022-09-30T14:20:34.756Z,16.30
2022-09-30T14:23:36.802Z,19.20
2022-09-30T14:26:41.352Z,16.50
2022-09-30T14:29:57.161Z,16.50
2022-09-30T14:33:09.641Z,16.50
2022-09-30T14:36:18.959Z,16.20
2022-09-30T14:39:26.127Z,15.40
2022-09-30T14:42:35.864Z,18.10
2022-09-30T14:45:42.176Z,15.70
2022-09-30T14:48:45.676Z,18.00
2022-09-30T14:51:48.978Z,17.30
2022-09-30T14:54:51.511Z,18.40
2022-09-30T14:58:46.071Z,16.20
2022-09-30T15:02:37.475Z,18.20
2022-09-30T15:05:40.427Z,13.40
2022-09-30T15:09:37.696Z,18.00
2022-09-30T15:12:42.845Z,17.20
2022-09-30T15:15:44.929Z,18.10
2022-09-30T15:18:46.827Z,17.40
2022-09-30T15:21:51.906Z,18.20
2022-09-30T15:24:54.863Z,18.10
2022-09-30T15:27:56.796Z,18.20
2022-09-30T15:30:59.089Z,16.40
2022-09-30T15:34:24.108Z,18.60
2022-09-30T15:37:33.804Z,17.70
2022-09-30T15:40:49.958Z,18.20
2022-09-30T15:43:53.934Z,15.50
2022-09-30T15:47:08.389Z,18.00
2022-09-30T15:50:37.822Z,17.20
2022-09-30T15:53:39.470Z,16.20
2022-09-30T15:56:43.107Z,16.50
2022-09-30T16:00:00.270Z,17.30
2022-09-30T16:03:19.092Z,17.60
2022-09-30T16:06:25.433Z,15.50
2022-09-30T16:09:31.598Z,15.00
2022-09-30T16:12:35.851Z,15.90
2022-09-30T16:15:40.699Z,15.80
2022-09-30T16:18:44.195Z,17.20
2022-09-30T16:21:51.039Z,16.40
2022-09-30T16:25:09.003Z,15.30
2022-09-30T16:28:14.390Z,14.90
2022-09-30T16:31:16.305Z,17.10
2022-09-30T16:34:26.768Z,14.30
2022-09-30T16:37:28.542Z,16.40
2022-09-30T16:40:39.195Z,16.30
2022-09-30T16:43:40.891Z,16.70
2022-09-30T16:46:42.523Z,14.10
2022-09-30T16:49:46.276Z,16.40
2022-09-30T16:52:48.089Z,15.80
2022-09-30T16:55:50.109Z,13.80
2022-09-30T16:58:51.847Z,14.70
2022-09-30T17:01:53.514Z,16.30
2022-09-30T17:04:55.207Z,13.40
2022-09-30T17:07:59.021Z,13.80
2022-09-30T17:11:01.032Z,16.10
2022-09-30T17:14:04.497Z,16.50
2022-09-30T17:17:09.754Z,14.10
2022-09-30T17:20:14.490Z,16.00
2022-09-30T17:23:16.145Z,14.00
2022-09-30T17:26:18.090Z,13.20
2022-09-30T17:29:38.834Z,13.70
2022-09-30T17:32:42.473Z,16.20
2022-09-30T17:35:44.174Z,12.90
2022-09-30T17:38:45.861Z,12.90
2022-09-30T17:42:06.113Z,13.20
2022-09-30T17:45:08.374Z,12.70
2022-09-30T17:48:12.041Z,13.70
2022-09-30T17:51:16.232Z,13.60
2022-09-30T17:54:17.796Z,12.50
2022-09-30T17:57:20.748Z,14.70
2022-09-30T18:00:22.950Z,12.70
2022-09-30T18:03:25.615Z,14.50
2022-09-30T18:06:28.593Z,14.70
2022-09-30T18:09:30.171Z,12.50
2022-09-30T18:12:34.337Z,12.80
2022-09-30T18:15:39.004Z,12.80
2022-09-30T18:18:40.621Z,14.70
2022-09-30T18:21:42.288Z,14.70
2022-09-30T18:25:02.490Z,14.40
2022-09-30T18:28:06.043Z,12.80
2022-09-30T18:31:08.476Z,12.50
2022-09-30T18:34:13.184Z,12.70
2022-09-30T18:37:14.767Z,13.00
2022-09-30T18:40:25.758Z,12.70
2022-09-30T18:43:27.796Z,12.30
2022-09-30T18:46:30.681Z,12.70
2022-09-30T18:49:32.624Z,14.40
2022-09-30T18:52:34.382Z,13.40
2022-09-30T18:55:38.061Z,13.80
2022-09-30T18:58:40.095Z,14.70
2022-09-30T19:01:43.573Z,14.70
2022-09-30T19:04:46.071Z,13.40
2022-09-30T19:07:48.132Z,12.50
2022-09-30T19:10:50.497Z,15.60
2022-09-30T19:13:52.886Z,12.70
2022-09-30T19:16:54.582Z,12.60
2022-09-30T19:19:56.219Z,13.20
2022-09-30T19:22:58.105Z,12.80
2022-09-30T19:26:02.494Z,14.80
2022-09-30T19:29:05.395Z,14.30
2022-09-30T19:32:09.621Z,14.60
2022-09-30T19:35:12.430Z,12.60
2022-09-30T19:38:15.209Z,15.00
2022-09-30T19:41:17.458Z,12.70
2022-09-30T19:44:20.053Z,14.60
2022-09-30T19:47:21.654Z,14.80
2022-09-30T19:50:23.246Z,12.40
2022-09-30T19:53:30.759Z,13.70
2022-09-30T19:56:42.018Z,12.00
2022-09-30T19:59:43.830Z,15.10
2022-09-30T20:02:45.422Z,14.30
2022-09-30T20:05:47.026Z,11.90
2022-09-30T20:08:54.300Z,14.20
2022-09-30T20:11:55.993Z,12.90
2022-09-30T20:15:19.374Z,12.60
2022-09-30T20:18:40.599Z,13.30
2022-09-30T20:21:42.279Z,15.00
2022-09-30T20:24:44.075Z,12.90
2022-09-30T20:27:49.835Z,14.20
2022-09-30T20:30:54.040Z,14.00
2022-09-30T20:33:57.528Z,12.30
2022-09-30T20:36:59.196Z,14.20
2022-09-30T20:40:01.139Z,13.90
2022-09-30T20:43:03.972Z,12.70
2022-09-30T20:46:08.227Z,10.40
2022-09-30T20:49:09.967Z,14.10
2022-09-30T20:52:11.667Z,11.90
2022-09-30T20:55:13.304Z,12.30
2022-09-30T20:58:14.989Z,12.90
2022-09-30T21:01:19.318Z,12.60
2022-09-30T21:04:21.371Z,14.80
2022-09-30T21:07:23.654Z,12.40
2022-09-30T21:10:25.329Z,12.50
2022-09-30T21:13:26.926Z,13.20
2022-09-30T21:16:29.545Z,12.30
2022-09-30T21:19:31.435Z,12.20
2022-09-30T21:22:33.071Z,15.50
2022-09-30T21:25:34.831Z,14.90
2022-09-30T21:37:11.411Z,14.20
2022-09-30T21:40:12.986Z,12.60
2022-09-30T21:43:14.548Z,13.10
2022-09-30T21:46:18.303Z,14.80
2022-09-30T21:49:22.927Z,12.60
2022-09-30T21:52:24.585Z,12.70
2022-09-30T21:55:27.132Z,12.50
2022-09-30T21:58:31.631Z,12.70
2022-09-30T22:01:33.634Z,13.50
2022-09-30T22:04:37.463Z,12.90
2022-09-30T22:07:39.376Z,12.90
2022-09-30T22:10:43.271Z,12.90
2022-09-30T22:13:46.250Z,12.80
2022-09-30T22:16:48.179Z,12.50
2022-09-30T22:19:49.835Z,12.90
2022-09-30T22:22:51.402Z,12.90
2022-09-30T22:25:52.977Z,12.80
2022-09-30T22:29:00.543Z,12.60
2022-09-30T22:32:02.496Z,12.70
2022-09-30T22:35:23.558Z,12.30
2022-09-30T22:38:25.347Z,12.70
2022-09-30T22:41:26.867Z,10.90
2022-09-30T22:44:32.841Z,12.70
2022-09-30T22:47:35.815Z,12.80
2022-09-30T22:50:37.392Z,13.10
2022-09-30T22:53:38.895Z,12.10
2022-09-30T22:56:40.420Z,12.70
2022-09-30T22:59:42.813Z,12.90
2022-09-30T23:02:45.064Z,13.00
2022-09-30T23:05:46.724Z,12.50
2022-09-30T23:08:49.092Z,12.60
2022-09-30T23:11:54.805Z,12.60
2022-09-30T23:14:57.370Z,12.50
2022-09-30T23:17:58.925Z,12.90
2022-09-30T23:21:01.824Z,14.20
2022-09-30T23:24:03.678Z,14.20
2022-09-30T23:27:05.218Z,12.50
2022-09-30T23:30:07.461Z,12.50
2022-09-30T23:33:12.277Z,13.00
2022-09-30T23:36:16.194Z,13.80
2022-09-30T23:39:19.516Z,12.70
2022-09-30T23:42:21.184Z,14.50
2022-09-30T23:45:22.900Z,12.90
2022-09-30T23:48:24.731Z,12.60
2022-09-30T23:51:26.328Z,12.80
2022-09-30T23:54:27.866Z,12.70
2022-09-30T23:57:29.424Z,13.00
